Time;durP1;ratioP1;P1;durP2;ratioP2;P2;SDS_P1;SDS_P2;PMS_P1;PMS_P2;Temp;Humidity;BMP_temperature;BMP_pressure;BME280_temperature;BME280_humidity;BME280_pressure;Samples;Min_cycle;Max_cycle;Signal;HPM_P1;HPM_P2
2022/08/14 00:01:22;;;;;;;2.27;1.67;;;20.20;56.70;20.60;96242.00;;;;5091164;28;20282;-82
2022/08/14 00:03:50;;;;;;;2.10;1.90;;;20.20;56.80;20.60;96236.00;;;;5075247;28;20249;-83
2022/08/14 00:06:17;;;;;;;2.37;2.20;;;20.20;57.00;20.60;96234.00;;;;5091076;28;20262;-82
2022/08/14 00:08:44;;;;;;;2.27;2.13;;;20.20;57.10;20.50;96223.00;;;;5091979;28;20645;-82
2022/08/14 00:11:11;;;;;;;2.00;1.90;;;20.10;57.20;20.50;96222.00;;;;5091839;28;20195;-85
2022/08/14 00:13:38;;;;;;;2.43;1.80;;;20.10;57.20;20.50;96217.00;;;;5084111;28;20272;-82
2022/08/14 00:16:09;;;;;;;2.00;1.90;;;20.10;57.30;20.50;96208.00;;;;5084042;28;20276;-84
2022/08/14 00:18:36;;;;;;;1.90;1.80;;;20.10;57.50;20.50;96217.00;;;;5086620;28;20685;-83
2022/08/14 00:21:04;;;;;;;2.00;1.90;;;20.10;57.50;20.50;96208.00;;;;5088687;28;20248;-82
2022/08/14 00:23:31;;;;;;;1.97;1.87;;;20.10;57.70;20.40;96206.00;;;;5087866;28;20250;-82
2022/08/14 00:25:59;;;;;;;1.97;1.87;;;20.00;57.70;20.40;96211.00;;;;5085589;28;20736;-83
2022/08/14 00:28:27;;;;;;;2.27;2.17;;;20.00;57.70;20.40;96200.00;;;;5081651;28;20233;-84
2022/08/14 00:30:57;;;;;;;2.27;2.17;;;20.00;57.80;20.30;96200.00;;;;5088143;28;20235;-82
2022/08/14 00:33:27;;;;;;;1.90;1.80;;;19.90;57.80;20.30;96191.00;;;;5083572;28;20247;-82
2022/08/14 00:35:55;;;;;;;2.27;2.10;;;19.90;57.90;20.30;96194.00;;;;5076937;28;20195;-83
2022/08/14 00:38:22;;;;;;;2.00;1.90;;;19.90;58.00;20.30;96200.00;;;;5085362;28;20655;-82
2022/08/14 00:40:50;;;;;;;1.70;1.60;;;19.90;58.10;20.20;96195.00;;;;5085050;28;20266;-82
2022/08/14 00:43:18;;;;;;;2.20;2.10;;;19.80;58.10;20.20;96198.00;;;;5080092;28;20300;-82
2022/08/14 00:45:46;;;;;;;2.00;1.90;;;19.80;58.20;20.20;96199.00;;;;5084360;28;20675;-83
2022/08/14 00:48:13;;;;;;;1.80;1.70;;;19.80;58.20;20.20;96194.00;;;;5087212;28;20199;-84
2022/08/14 00:50:41;;;;;;;1.97;1.77;;;19.80;58.30;20.20;96190.00;;;;5094281;28;20289;-82
2022/08/14 00:53:09;;;;;;;1.90;1.80;;;19.80;58.40;20.20;96195.00;;;;5094454;28;20256;-82
2022/08/14 00:55:40;;;;;;;2.07;1.93;;;19.70;58.40;20.10;96191.00;;;;5085377;28;20195;-82
2022/08/14 01:00:53;;;;;;;2.10;1.90;;;19.70;58.60;20.10;96185.00;;;;5086285;28;20321;-85
2022/08/14 01:03:21;;;;;;;2.40;2.20;;;19.70;58.60;20.10;96184.00;;;;5094323;28;20211;-82
2022/08/14 01:05:53;;;;;;;2.83;2.03;;;19.60;58.60;20.00;96180.00;;;;5094252;28;20286;-82
2022/08/14 01:08:23;;;;;;;2.20;1.70;;;19.60;59.00;20.00;96182.00;;;;5087254;28;20227;-82
2022/08/14 01:10:50;;;;;;;3.17;1.67;;;19.60;59.00;20.00;96177.00;;;;5084408;28;20223;-82
2022/08/14 01:13:21;;;;;;;2.03;1.93;;;19.60;59.00;19.90;96172.00;;;;5084986;28;20297;-84
2022/08/14 01:15:54;;;;;;;1.73;1.63;;;19.60;59.20;19.90;96182.00;;;;5090857;28;20755;-82
2022/08/14 01:21:15;;;;;;;2.40;2.20;;;19.50;59.30;19.80;96178.00;;;;5082612;28;20222;-84
2022/08/14 01:23:46;;;;;;;2.07;1.97;;;19.50;59.40;19.80;96174.00;;;;5083215;28;20211;-83
2022/08/14 01:26:19;;;;;;;2.33;2.13;;;19.50;59.40;19.80;96175.00;;;;5092678;28;20191;-84
2022/08/14 01:28:48;;;;;;;2.20;1.93;;;19.50;59.50;19.80;96176.00;;;;5091218;28;20264;-82
2022/08/14 01:31:18;;;;;;;2.77;1.83;;;19.40;59.50;19.80;96175.00;;;;5093404;28;20195;-82
2022/08/14 01:33:50;;;;;;;2.53;1.73;;;19.40;59.60;19.80;96178.00;;;;5091342;28;20251;-82
2022/08/14 01:36:19;;;;;;;1.90;1.80;;;19.40;59.60;19.80;96172.00;;;;5093884;28;20270;-82
2022/08/14 01:38:55;;;;;;;1.90;1.80;;;19.50;59.60;19.80;96169.00;;;;5080199;28;20226;-82
2022/08/14 01:41:26;;;;;;;1.90;1.80;;;19.50;59.70;19.80;96173.00;;;;5082397;28;20215;-84
2022/08/14 01:43:59;;;;;;;2.20;2.10;;;19.40;59.50;19.80;96163.00;;;;5089018;28;20603;-82
2022/08/14 01:46:28;;;;;;;2.13;1.87;;;19.40;59.60;19.80;96155.00;;;;5085560;28;20720;-82
2022/08/14 01:48:56;;;;;;;1.83;1.73;;;19.40;59.50;19.70;96157.00;;;;5093082;28;20237;-82
2022/08/14 01:51:27;;;;;;;1.90;1.80;;;19.40;59.40;19.70;96161.00;;;;5093148;28;20219;-82
2022/08/14 01:53:59;;;;;;;1.77;1.67;;;19.40;59.50;19.70;96160.00;;;;5085873;28;20277;-82
2022/08/14 01:56:36;;;;;;;1.70;1.60;;;19.30;59.50;19.60;96157.00;;;;5089590;28;20256;-83
2022/08/14 01:59:05;;;;;;;2.90;1.83;;;19.30;59.50;19.60;96144.00;;;;5087215;28;20583;-82
2022/08/14 02:01:36;;;;;;;2.10;1.90;;;19.30;59.70;19.60;96133.00;;;;5091748;28;20687;-85
2022/08/14 02:04:04;;;;;;;1.90;1.80;;;19.30;59.90;19.60;96132.00;;;;5086712;28;20214;-82
2022/08/14 02:06:31;;;;;;;1.90;1.80;;;19.20;59.90;19.60;96134.00;;;;5092919;28;20259;-82
2022/08/14 02:09:02;;;;;;;2.80;2.10;;;19.20;60.10;19.60;96133.00;;;;5090123;28;20195;-83
2022/08/14 02:11:33;;;;;;;1.60;1.50;;;19.20;60.20;19.50;96123.00;;;;5091406;28;20286;-82
2022/08/14 02:14:03;;;;;;;2.43;1.70;;;19.20;60.10;19.50;96121.00;;;;5088613;28;20231;-82
2022/08/14 02:16:37;;;;;;;1.83;1.73;;;19.20;60.80;19.50;96121.00;;;;5090556;28;20633;-82
2022/08/14 02:19:08;;;;;;;2.03;1.93;;;19.10;60.10;19.50;96115.00;;;;5093119;28;20210;-82
2022/08/14 02:21:36;;;;;;;2.10;2.00;;;19.10;60.30;19.50;96114.00;;;;5084785;28;20246;-82
2022/08/14 02:24:07;;;;;;;1.73;1.63;;;19.10;60.30;19.50;96109.00;;;;5092641;28;20245;-83
2022/08/14 02:26:38;;;;;;;1.83;1.73;;;19.10;60.40;19.50;96108.00;;;;5088638;28;20200;-83
2022/08/14 02:29:08;;;;;;;1.93;1.80;;;19.10;61.20;19.40;96103.00;;;;5086167;28;20282;-82
2022/08/14 02:31:39;;;;;;;1.73;1.63;;;19.10;60.40;19.40;96109.00;;;;5091532;28;20234;-82
2022/08/14 02:34:10;;;;;;;1.70;1.60;;;19.10;60.40;19.40;96106.00;;;;5087363;28;20763;-82
2022/08/14 02:36:37;;;;;;;2.00;1.90;;;19.00;60.30;19.30;96102.00;;;;5084805;28;20200;-82
2022/08/14 02:39:07;;;;;;;1.93;1.83;;;19.00;60.30;19.30;96093.00;;;;5092018;28;20242;-82
2022/08/14 02:41:35;;;;;;;1.53;1.43;;;19.00;60.20;19.20;96093.00;;;;5090938;28;20250;-84
2022/08/14 02:44:06;;;;;;;2.23;2.03;;;19.00;60.20;19.20;96086.00;;;;5083731;28;20285;-83
2022/08/14 02:46:33;;;;;;;2.27;1.60;;;18.90;60.20;19.20;96084.00;;;;5080805;28;20196;-83
2022/08/14 02:49:01;;;;;;;1.77;1.67;;;18.90;60.40;19.20;96078.00;;;;5078534;28;20278;-82
2022/08/14 02:51:29;;;;;;;1.57;1.50;;;18.80;60.50;19.20;96074.00;;;;5083864;28;20282;-83
2022/08/14 02:53:57;;;;;;;1.73;1.63;;;18.90;60.70;19.10;96073.00;;;;5077204;28;20714;-83
2022/08/14 02:56:26;;;;;;;1.67;1.57;;;18.80;60.50;19.10;96068.00;;;;5091100;28;20218;-83
2022/08/14 02:59:00;;;;;;;1.83;1.73;;;18.80;60.60;19.10;96068.00;;;;5085958;28;20223;-83
2022/08/14 03:01:28;;;;;;;2.00;1.80;;;18.80;60.60;19.10;96067.00;;;;5080141;28;20236;-82
2022/08/14 03:03:56;;;;;;;1.90;1.70;;;18.70;60.50;19.00;96063.00;;;;5089541;28;20229;-83
2022/08/14 03:06:24;;;;;;;2.93;2.37;;;18.70;60.60;19.00;96064.00;;;;5087157;28;20196;-85
2022/08/14 03:08:53;;;;;;;2.40;2.30;;;18.70;60.50;19.00;96068.00;;;;5093291;28;20199;-83
2022/08/14 03:11:21;;;;;;;4.53;1.87;;;18.70;60.60;19.00;96068.00;;;;5091966;28;20231;-83
2022/08/14 03:13:51;;;;;;;1.87;1.77;;;18.60;60.80;18.90;96068.00;;;;5092514;28;20211;-82
2022/08/14 03:16:22;;;;;;;1.70;1.60;;;18.60;61.10;18.90;96079.00;;;;5086390;28;20201;-82
2022/08/14 03:18:53;;;;;;;2.30;1.73;;;18.60;61.20;18.90;96071.00;;;;5082638;28;20323;-83
2022/08/14 03:21:24;;;;;;;1.70;1.60;;;18.60;61.10;18.90;96076.00;;;;5091357;28;20206;-82
2022/08/14 03:23:59;;;;;;;1.80;1.70;;;18.50;61.00;18.80;96069.00;;;;5092465;28;20219;-83
2022/08/14 03:26:28;;;;;;;1.97;1.87;;;18.50;61.10;18.80;96074.00;;;;5083484;28;20195;-82
2022/08/14 03:28:57;;;;;;;1.93;1.83;;;18.50;61.00;18.80;96063.00;;;;5078977;28;20211;-82
2022/08/14 03:31:24;;;;;;;2.30;2.20;;;18.50;61.20;18.80;96053.00;;;;5090739;28;20191;-83
2022/08/14 03:33:52;;;;;;;2.20;2.10;;;18.50;61.20;18.70;96059.00;;;;5082049;28;20212;-82
2022/08/14 03:36:21;;;;;;;1.90;1.80;;;18.40;61.30;18.70;96052.00;;;;5082273;28;20232;-82
2022/08/14 03:38:52;;;;;;;2.37;2.17;;;18.40;61.50;18.70;96050.00;;;;5087660;28;20231;-84
2022/08/14 03:41:22;;;;;;;2.30;2.20;;;18.40;61.50;18.70;96051.00;;;;5091300;28;20198;-82
2022/08/14 03:43:54;;;;;;;2.07;1.97;;;18.40;61.50;18.60;96057.00;;;;5084653;28;20311;-82
2022/08/14 03:46:25;;;;;;;2.20;2.00;;;18.40;61.50;18.60;96056.00;;;;5079457;28;20191;-82
2022/08/14 03:48:54;;;;;;;1.87;1.77;;;18.30;61.50;18.60;96046.00;;;;5087022;28;20207;-83
2022/08/14 03:51:27;;;;;;;2.30;2.20;;;18.30;61.50;18.60;96045.00;;;;5085957;28;20196;-83
2022/08/14 03:53:59;;;;;;;2.80;2.13;;;18.30;61.50;18.50;96046.00;;;;5082775;28;20695;-83
2022/08/14 03:56:28;;;;;;;1.90;1.80;;;18.30;61.70;18.50;96037.00;;;;5082851;28;20680;-82
2022/08/14 03:59:01;;;;;;;2.10;2.00;;;18.30;61.80;18.50;96034.00;;;;5088589;28;20211;-81
2022/08/14 04:01:31;;;;;;;2.20;2.10;;;18.30;62.00;18.50;96040.00;;;;5088982;28;20664;-82
2022/08/14 04:04:01;;;;;;;2.53;2.37;;;18.30;62.10;18.60;96041.00;;;;5083742;28;20219;-81
2022/08/14 04:06:28;;;;;;;2.40;2.23;;;18.20;62.00;18.50;96041.00;;;;5091239;28;20192;-82
2022/08/14 04:08:55;;;;;;;2.43;2.17;;;18.20;62.70;18.50;96039.00;;;;5072469;28;20250;-82
2022/08/14 04:11:23;;;;;;;2.30;2.20;;;18.20;61.80;18.50;96036.00;;;;5083850;28;20223;-84
2022/08/14 04:13:50;;;;;;;2.37;2.17;;;18.20;61.80;18.50;96036.00;;;;5084058;28;20243;-84
2022/08/14 04:16:21;;;;;;;2.77;2.13;;;18.20;61.80;18.50;96035.00;;;;5091410;28;20195;-82
2022/08/14 04:18:54;;;;;;;2.13;2.00;;;18.20;62.00;18.50;96025.00;;;;5094029;28;20219;-82
2022/08/14 04:21:24;;;;;;;2.20;2.10;;;18.20;62.20;18.50;96019.00;;;;5087157;28;20214;-84
2022/08/14 04:23:53;;;;;;;2.20;2.10;;;18.20;62.30;18.50;96012.00;;;;5083850;28;20218;-83
2022/08/14 04:26:21;;;;;;;2.00;1.90;;;18.20;62.50;18.50;96010.00;;;;5090963;28;20276;-84
2022/08/14 04:28:50;;;;;;;2.10;2.00;;;18.20;62.60;18.50;96017.00;;;;5086876;28;20199;-82
2022/08/14 04:31:19;;;;;;;2.07;1.87;;;18.20;62.60;18.50;96021.00;;;;5088008;28;20196;-82
2022/08/14 04:33:47;;;;;;;3.10;1.97;;;18.20;62.60;18.50;96024.00;;;;5090937;28;20211;-82
2022/08/14 04:36:18;;;;;;;3.00;2.47;;;18.20;62.60;18.50;96026.00;;;;5090080;28;20226;-82
2022/08/14 04:44:14;;;;;;;2.20;2.10;;;18.20;62.70;18.50;96008.00;;;;5068759;28;20298;-83
2022/08/14 04:48:11;;;;;;;2.30;2.10;;;18.20;62.80;18.50;96010.00;;;;5093787;28;20685;-82
2022/08/14 04:49:31;;;;;;;2.70;2.50;;;18.20;62.90;18.40;96007.00;;;;5083782;28;20191;-83
2022/08/14 04:52:03;;;;;;;2.23;2.03;;;18.20;62.90;18.40;96011.00;;;;5093192;28;20260;-83
2022/08/14 04:54:31;;;;;;;2.57;2.37;;;18.10;63.00;18.50;96005.00;;;;5093623;28;20307;-83
2022/08/14 04:56:58;;;;;;;2.37;2.27;;;18.10;63.00;18.50;95995.00;;;;5087318;28;20695;-82
2022/08/14 04:59:25;;;;;;;2.80;2.27;;;18.10;63.10;18.50;95997.00;;;;5089163;28;20307;-82
2022/08/14 05:01:53;;;;;;;2.30;2.20;;;18.10;63.20;18.50;95990.00;;;;5094461;28;20632;-83
2022/08/14 05:04:21;;;;;;;2.40;2.30;;;18.10;63.40;18.50;95999.00;;;;5084334;28;20211;-82
2022/08/14 05:06:50;;;;;;;2.60;2.40;;;18.10;63.70;18.50;95996.00;;;;5092694;28;20219;-82
2022/08/14 05:09:19;;;;;;;2.27;2.17;;;18.10;63.70;18.50;96006.00;;;;5090321;28;20632;-82
2022/08/14 05:11:47;;;;;;;2.67;2.47;;;18.20;63.80;18.50;96010.00;;;;5086107;28;20323;-82
2022/08/14 05:14:14;;;;;;;2.63;2.47;;;18.20;64.60;18.50;96000.00;;;;5080713;28;20211;-83
2022/08/14 05:16:41;;;;;;;2.43;2.23;;;18.20;64.00;18.60;96004.00;;;;5086280;28;20245;-82
2022/08/14 05:19:12;;;;;;;2.50;2.30;;;18.20;64.70;18.60;95998.00;;;;5092790;28;20211;-82
2022/08/14 05:21:40;;;;;;;3.40;2.87;;;18.20;64.10;18.60;95996.00;;;;5094077;28;20191;-82
2022/08/14 05:24:10;;;;;;;2.90;2.70;;;18.20;64.20;18.60;95997.00;;;;5088106;28;20242;-83
2022/08/14 05:26:40;;;;;;;2.90;2.70;;;18.20;64.30;18.70;95999.00;;;;5091091;28;20199;-83
2022/08/14 05:29:09;;;;;;;2.93;2.67;;;18.30;64.60;18.70;96003.00;;;;5087794;28;20203;-82
2022/08/14 05:31:39;;;;;;;3.20;2.90;;;18.30;64.70;18.70;95994.00;;;;5091789;28;20188;-82
2022/08/14 05:34:06;;;;;;;3.20;3.00;;;18.30;64.70;18.80;95992.00;;;;5083786;28;20589;-83
2022/08/14 05:36:34;;;;;;;3.47;3.20;;;18.30;64.70;18.80;95995.00;;;;5091553;28;20227;-86
2022/08/14 05:39:01;;;;;;;2.97;2.77;;;18.40;64.80;18.80;95989.00;;;;5087896;28;20251;-83
2022/08/14 05:41:28;;;;;;;3.10;2.90;;;18.40;64.90;18.90;95986.00;;;;5093122;28;20199;-82
2022/08/14 05:43:57;;;;;;;3.30;3.00;;;18.40;64.90;18.90;95988.00;;;;5082649;28;20283;-82
2022/08/14 05:46:24;;;;;;;2.93;2.73;;;18.50;64.90;19.00;95992.00;;;;5091559;28;20202;-83
2022/08/14 05:48:55;;;;;;;3.20;3.00;;;18.50;65.00;19.00;95998.00;;;;5085349;28;20206;-83
2022/08/14 05:51:24;;;;;;;3.30;3.07;;;18.50;65.10;19.00;95997.00;;;;5085756;28;20222;-83
2022/08/14 05:53:51;;;;;;;2.87;2.67;;;18.60;65.00;19.10;95996.00;;;;5087615;28;20635;-85
2022/08/14 05:56:18;;;;;;;2.87;2.67;;;18.60;64.90;19.20;96001.00;;;;5088567;28;20244;-85
2022/08/14 05:58:46;;;;;;;3.43;3.23;;;18.70;64.70;19.20;96007.00;;;;5090846;28;20302;-85
2022/08/14 06:01:14;;;;;;;3.37;3.17;;;18.70;64.60;19.30;96008.00;;;;5086220;28;20204;-85
2022/08/14 06:03:42;;;;;;;3.40;3.17;;;18.80;65.50;19.40;96010.00;;;;5091540;28;20219;-85
2022/08/14 06:06:09;;;;;;;4.10;3.90;;;18.80;64.60;19.40;96012.00;;;;5091287;28;20214;-85
2022/08/14 06:08:36;;;;;;;3.57;3.37;;;18.90;64.50;19.50;96020.00;;;;5093045;28;20195;-84
2022/08/14 06:11:07;;;;;;;3.63;3.43;;;18.90;64.40;19.60;96015.00;;;;5085003;28;20189;-85
2022/08/14 06:13:38;;;;;;;4.30;4.00;;;19.00;64.40;19.70;96019.00;;;;5089458;28;20231;-85
2022/08/14 06:16:06;;;;;;;3.20;3.00;;;19.10;64.30;19.80;96020.00;;;;5083732;28;20288;-84
2022/08/14 06:18:35;;;;;;;3.67;3.40;;;19.20;64.00;19.80;96024.00;;;;5075147;28;20232;-85
2022/08/14 06:21:03;;;;;;;3.57;3.27;;;19.30;64.00;19.90;96028.00;;;;5087073;28;20219;-84
2022/08/14 06:23:30;;;;;;;3.57;3.27;;;19.30;64.00;20.00;96023.00;;;;5074473;28;20216;-85
2022/08/14 06:25:57;;;;;;;3.47;3.17;;;19.40;64.00;20.10;96030.00;;;;5086047;28;20195;-86
2022/08/14 06:28:27;;;;;;;3.13;2.93;;;19.50;64.00;20.10;96017.00;;;;5088499;28;20238;-85
2022/08/14 06:30:55;;;;;;;3.57;3.27;;;19.50;63.60;20.20;96023.00;;;;5084308;28;20251;-85
2022/08/14 06:33:23;;;;;;;2.77;2.67;;;19.60;63.50;20.30;96010.00;;;;5084413;28;20311;-85
2022/08/14 06:35:51;;;;;;;3.53;3.23;;;19.70;63.50;20.40;96016.00;;;;5079345;28;20195;-85
2022/08/14 06:38:21;;;;;;;2.93;2.73;;;19.80;63.30;20.50;96025.00;;;;5084480;28;20283;-85
2022/08/14 06:40:49;;;;;;;2.63;2.43;;;19.80;63.10;20.50;96026.00;;;;5092451;28;20187;-86
2022/08/14 06:43:19;;;;;;;3.07;2.87;;;19.90;63.00;20.60;96016.00;;;;5090376;28;20694;-85
2022/08/14 06:45:48;;;;;;;2.87;2.67;;;20.00;63.10;20.70;96019.00;;;;5082214;28;20230;-85
2022/08/14 06:48:18;;;;;;;3.50;3.20;;;20.10;63.10;20.80;96018.00;;;;5087464;28;20229;-85
2022/08/14 06:50:48;;;;;;;2.87;2.67;;;20.20;62.90;20.90;96023.00;;;;5087283;28;20234;-85
2022/08/14 06:53:18;;;;;;;3.20;3.00;;;20.30;62.80;21.00;96032.00;;;;5091141;28;20659;-85
2022/08/14 06:55:47;;;;;;;3.50;3.20;;;20.40;62.70;21.10;96032.00;;;;5085242;28;20329;-85
2022/08/14 06:58:17;;;;;;;3.27;3.07;;;20.50;62.60;21.20;96029.00;;;;5087669;28;20282;-84
2022/08/14 07:06:13;;;;;;;2.87;2.67;;;20.80;62.40;21.60;96033.00;;;;5087781;28;20219;-86
2022/08/14 07:08:42;;;;;;;2.83;2.63;;;20.90;62.90;21.70;96034.00;;;;5090396;28;20199;-87
2022/08/14 07:11:11;;;;;;;3.10;2.57;;;21.00;62.10;21.80;96035.00;;;;5092704;28;20672;-86
2022/08/14 07:13:39;;;;;;;2.43;2.33;;;21.10;62.20;22.00;96045.00;;;;5091933;28;20214;-86
2022/08/14 07:16:07;;;;;;;2.27;2.17;;;21.20;62.40;22.20;96045.00;;;;5079849;28;20234;-86
2022/08/14 07:18:36;;;;;;;2.50;2.40;;;21.30;62.30;22.30;96042.00;;;;5092873;28;20288;-86
2022/08/14 07:21:06;;;;;;;2.50;2.30;;;21.50;62.30;22.50;96041.00;;;;5092469;28;20195;-85
2022/08/14 07:23:33;;;;;;;2.20;2.10;;;21.60;61.90;22.70;96025.00;;;;5089885;28;20243;-85
2022/08/14 07:26:04;;;;;;;2.30;2.10;;;21.80;62.00;22.90;96027.00;;;;5076476;28;20187;-86
2022/08/14 07:28:34;;;;;;;2.03;1.93;;;22.00;61.40;23.10;96029.00;;;;5082680;28;20282;-86
2022/08/14 07:31:05;;;;;;;2.10;2.00;;;22.10;60.60;23.30;96023.00;;;;5091491;28;20736;-86
2022/08/14 07:33:39;;;;;;;2.30;2.10;;;22.30;60.60;23.50;96018.00;;;;5090476;28;21114;-86
2022/08/14 07:36:10;;;;;;;2.00;1.90;;;22.50;60.50;23.70;96018.00;;;;5091214;28;20207;-85
2022/08/14 07:38:39;;;;;;;2.00;1.90;;;22.70;59.90;23.90;96013.00;;;;5085601;28;20231;-86
2022/08/14 07:41:10;;;;;;;2.20;2.10;;;22.80;59.50;24.10;96003.00;;;;5091205;28;20289;-85
2022/08/14 07:43:38;;;;;;;1.80;1.70;;;23.00;59.50;24.30;96003.00;;;;5089200;28;20475;-85
2022/08/14 07:46:06;;;;;;;1.70;1.60;;;23.20;59.30;24.50;95996.00;;;;5087177;28;20705;-85
2022/08/14 07:48:39;;;;;;;1.87;1.77;;;23.40;58.90;24.70;95998.00;;;;5089720;28;20307;-85
2022/08/14 07:51:07;;;;;;;1.80;1.70;;;23.50;58.40;24.80;95998.00;;;;5086531;28;20202;-85
2022/08/14 07:53:34;;;;;;;1.90;1.80;;;23.70;58.40;25.00;95995.00;;;;5088722;28;20258;-84
2022/08/14 07:56:01;;;;;;;1.90;1.63;;;23.90;58.40;25.20;95984.00;;;;5090443;28;20288;-85
2022/08/14 07:58:30;;;;;;;1.70;1.50;;;24.00;58.10;25.30;95981.00;;;;5082954;28;20225;-85
2022/08/14 08:00:58;;;;;;;1.53;1.43;;;24.20;58.00;25.50;95979.00;;;;5089367;28;20230;-84
2022/08/14 08:03:26;;;;;;;1.53;1.43;;;24.30;57.50;25.70;95977.00;;;;5089127;28;20304;-86
2022/08/14 08:05:54;;;;;;;1.50;1.40;;;24.50;57.30;25.90;95987.00;;;;5087489;28;20655;-85
2022/08/14 08:08:22;;;;;;;1.97;1.70;;;24.70;57.10;26.10;95990.00;;;;5085161;28;20245;-86
2022/08/14 08:10:50;;;;;;;1.67;1.57;;;24.90;56.80;26.20;95986.00;;;;5088928;28;20202;-85
2022/08/14 08:13:21;;;;;;;1.60;1.50;;;25.00;56.50;26.40;95977.00;;;;5090235;28;20256;-86
2022/08/14 08:15:53;;;;;;;1.20;1.20;;;25.20;56.30;26.60;95978.00;;;;5086632;28;20199;-86
2022/08/14 08:18:21;;;;;;;1.50;1.40;;;25.40;56.00;26.80;95985.00;;;;5073732;28;20191;-86
2022/08/14 08:20:51;;;;;;;2.07;1.97;;;25.60;55.60;27.00;95974.00;;;;5093043;28;20554;-86
2022/08/14 08:23:22;;;;;;;1.90;1.80;;;25.70;55.50;27.20;95972.00;;;;5078389;28;20219;-85
2022/08/14 08:25:51;;;;;;;1.83;1.73;;;25.90;55.40;27.40;95987.00;;;;5082517;28;20194;-86
2022/08/14 08:28:20;;;;;;;1.40;1.20;;;26.10;55.10;27.60;95988.00;;;;5086093;28;20223;-87
2022/08/14 08:30:52;;;;;;;1.40;1.30;;;26.30;54.40;27.80;95994.00;;;;5089191;28;20606;-85
2022/08/14 08:33:22;;;;;;;1.67;1.50;;;26.40;53.90;28.00;95990.00;;;;5089236;28;20302;-87
2022/08/14 08:35:50;;;;;;;1.40;1.30;;;26.60;53.80;28.20;95977.00;;;;5086774;28;20196;-87
2022/08/14 08:38:20;;;;;;;1.40;1.30;;;26.80;53.60;28.40;95990.00;;;;5082460;28;20218;-87
2022/08/14 08:40:51;;;;;;;1.90;1.30;;;27.00;53.40;28.60;95983.00;;;;5090869;28;20219;-86
2022/08/14 08:43:22;;;;;;;1.67;1.40;;;27.20;53.20;28.80;95991.00;;;;5071303;28;20630;-87
2022/08/14 08:46:00;;;;;;;1.37;1.33;;;27.40;52.90;29.00;95993.00;;;;5070755;28;20287;-87
2022/08/14 08:48:29;;;;;;;1.30;1.30;;;27.60;52.40;29.20;95986.00;;;;5090990;28;20256;-88
2022/08/14 08:50:58;;;;;;;1.55;1.33;;;27.80;52.20;29.40;95995.00;;;;5090391;28;20294;-87
2022/08/14 08:53:31;;;;;;;1.10;1.10;;;28.00;51.90;29.60;95987.00;;;;5082716;28;20219;-88
2022/08/14 08:55:59;;;;;;;1.48;1.45;;;28.20;51.30;29.80;95988.00;;;;5090472;28;20551;-87
2022/08/14 08:58:27;;;;;;;1.33;1.30;;;28.40;51.30;30.00;95983.00;;;;5086299;28;20198;-87
2022/08/14 09:00:59;;;;;;;1.20;1.10;;;28.50;50.60;30.20;95987.00;;;;5088761;28;20224;-87
2022/08/14 09:03:31;;;;;;;1.40;1.30;;;28.70;50.60;30.40;95992.00;;;;5087331;28;20242;-86
2022/08/14 09:06:02;;;;;;;1.42;1.33;;;28.90;50.30;30.60;95979.00;;;;5088987;28;20210;-87
2022/08/14 09:08:32;;;;;;;1.40;1.30;;;29.10;50.10;30.80;95975.00;;;;5090823;28;20195;-88
2022/08/14 09:11:02;;;;;;;1.25;1.25;;;29.30;49.70;31.00;95979.00;;;;5089921;28;20240;-87
2022/08/14 09:13:30;;;;;;;0.95;0.95;;;29.40;49.30;31.20;95979.00;;;;5085303;28;20294;-88
2022/08/14 09:16:00;;;;;;;1.00;0.90;;;29.60;49.00;31.50;95982.00;;;;5090006;28;20559;-87
2022/08/14 09:18:28;;;;;;;1.35;1.25;;;29.80;48.60;31.70;95976.00;;;;5085208;28;20200;-87
2022/08/14 09:20:57;;;;;;;1.52;1.35;;;30.00;48.40;31.90;95984.00;;;;5094261;28;20767;-87
2022/08/14 09:23:24;;;;;;;2.95;1.30;;;30.20;48.10;32.10;95979.00;;;;5091148;28;20258;-87
2022/08/14 09:25:53;;;;;;;1.27;1.15;;;30.30;47.50;32.20;95974.00;;;;5091004;28;20275;-87
2022/08/14 09:28:21;;;;;;;1.10;1.10;;;30.50;47.10;32.40;95977.00;;;;5085611;28;20220;-87
2022/08/14 09:30:53;;;;;;;1.65;1.10;;;30.70;46.70;32.60;95966.00;;;;5088343;28;20249;-87
2022/08/14 09:33:47;;;;;;;1.60;1.50;;;30.90;46.40;32.80;95961.00;;;;5091063;28;20264;-87
2022/08/14 09:36:44;;;;;;;1.10;1.00;;;31.10;45.50;33.00;95954.00;;;;5082653;28;20186;-87
2022/08/14 09:39:37;;;;;;;0.93;0.93;;;31.30;45.30;33.20;95955.00;;;;5092295;28;20222;-87
2022/08/14 09:42:34;;;;;;;1.00;1.00;;;31.50;45.20;33.50;95963.00;;;;5086932;28;20328;-88
2022/08/14 09:45:16;;;;;;;1.67;0.93;;;31.70;44.90;33.70;95966.00;;;;5086091;28;20218;-87
2022/08/14 09:47:47;;;;;;;1.05;1.05;;;31.90;44.50;33.90;95970.00;;;;5088717;28;20329;-87
2022/08/14 09:50:28;;;;;;;1.05;1.05;;;32.10;44.90;34.10;95966.00;;;;5090231;28;20299;-87
2022/08/14 09:53:01;;;;;;;1.25;1.20;;;32.30;43.60;34.30;95959.00;;;;5089842;28;20292;-87
2022/08/14 09:55:32;;;;;;;1.10;1.10;;;32.40;43.80;34.50;95954.00;;;;5090083;28;20199;-85
2022/08/14 09:58:13;;;;;;;1.20;1.20;;;32.60;43.30;34.70;95949.00;;;;5085758;28;20664;-88
2022/08/14 10:00:47;;;;;;;1.33;1.08;;;32.80;42.80;35.00;95955.00;;;;5087384;28;20253;-88
2022/08/14 10:03:29;;;;;;;1.48;1.38;;;33.00;42.90;35.20;95963.00;;;;5093140;28;20817;-87
2022/08/14 10:06:08;;;;;;;1.00;1.00;;;33.20;42.00;35.50;95960.00;;;;5090210;28;20246;-87
2022/08/14 10:08:45;;;;;;;1.45;1.35;;;33.40;41.80;35.70;95955.00;;;;5088703;28;20259;-87
2022/08/14 10:11:23;;;;;;;0.90;0.90;;;33.50;41.30;35.90;95947.00;;;;5084626;28;20191;-88
2022/08/14 10:13:53;;;;;;;1.10;1.10;;;33.70;40.50;36.00;95950.00;;;;5091744;28;20581;-88
2022/08/14 10:16:24;;;;;;;1.40;1.30;;;33.80;40.20;36.00;95949.00;;;;5091266;28;20725;-88
2022/08/14 10:19:05;;;;;;;1.15;1.15;;;34.00;39.80;36.00;95947.00;;;;5084919;28;20644;-88
2022/08/14 10:21:35;;;;;;;1.60;1.15;;;34.10;39.20;36.10;95946.00;;;;5088261;28;20219;-89
2022/08/14 10:24:08;;;;;;;0.80;0.80;;;34.20;39.70;36.10;95944.00;;;;5083081;28;20273;-88
2022/08/14 10:26:36;;;;;;;1.05;0.98;;;34.30;39.20;36.20;95948.00;;;;5085260;28;20252;-89
2022/08/14 10:29:09;;;;;;;2.80;1.23;;;34.40;39.50;36.30;95945.00;;;;5089712;28;20282;-90
2022/08/14 10:31:37;;;;;;;0.80;0.80;;;34.50;38.70;36.40;95941.00;;;;5089527;28;20624;-88
2022/08/14 10:34:08;;;;;;;1.38;1.10;;;34.60;38.80;36.40;95945.00;;;;5085579;28;20211;-89
2022/08/14 10:36:39;;;;;;;0.98;0.98;;;34.80;38.80;36.40;95940.00;;;;5087926;28;20243;-88
2022/08/14 10:39:17;;;;;;;0.90;0.90;;;34.80;38.30;36.50;95929.00;;;;5091881;28;20275;-88
2022/08/14 10:41:45;;;;;;;1.00;1.00;;;35.00;38.20;36.50;95927.00;;;;5084248;28;20250;-88
2022/08/14 10:44:16;;;;;;;1.10;1.10;;;35.10;38.10;36.60;95923.00;;;;5088989;28;20304;-88
2022/08/14 10:46:46;;;;;;;1.00;1.00;;;35.20;37.90;36.60;95925.00;;;;5088145;28;20493;-87
2022/08/14 10:49:22;;;;;;;0.90;0.90;;;35.30;37.80;36.70;95923.00;;;;5086084;28;20600;-88
2022/08/14 10:52:06;;;;;;;0.90;0.90;;;35.40;37.00;36.70;95919.00;;;;5092747;28;20227;-88
2022/08/14 10:54:40;;;;;;;1.92;1.13;;;35.40;37.20;36.70;95925.00;;;;5091908;28;20231;-88
2022/08/14 10:57:19;;;;;;;1.13;1.10;;;35.50;37.20;36.70;95932.00;;;;5089127;28;20191;-88
2022/08/14 10:59:54;;;;;;;1.00;1.00;;;35.60;36.50;36.60;95918.00;;;;5079175;28;20191;-87
2022/08/14 11:02:29;;;;;;;0.93;0.93;;;35.60;36.30;36.40;95905.00;;;;5086802;28;20195;-88
2022/08/14 11:05:02;;;;;;;1.00;0.93;;;35.50;36.20;36.30;95912.00;;;;5091079;28;20593;-89
2022/08/14 11:07:32;;;;;;;1.02;1.02;;;35.50;36.20;36.10;95919.00;;;;5092023;28;20622;-88
2022/08/14 11:10:01;;;;;;;1.17;1.10;;;35.30;35.90;36.00;95908.00;;;;5073040;28;20573;-88
2022/08/14 11:12:46;;;;;;;1.20;1.00;;;35.30;35.80;35.80;95911.00;;;;5079386;28;20192;-89
2022/08/14 11:15:16;;;;;;;1.10;1.10;;;35.20;35.70;35.60;95897.00;;;;5072338;28;20207;-86
2022/08/14 11:17:46;;;;;;;1.67;1.13;;;35.00;35.90;35.40;95906.00;;;;5091686;28;20214;-88
2022/08/14 11:20:16;;;;;;;1.13;1.10;;;34.80;35.70;35.20;95899.00;;;;5092788;28;20613;-87
2022/08/14 11:22:46;;;;;;;1.25;1.15;;;34.70;35.80;35.10;95893.00;;;;5088451;28;20234;-88
2022/08/14 11:25:15;;;;;;;1.10;1.10;;;34.60;35.70;34.90;95882.00;;;;5086453;28;20288;-87